createdAt,value
2019-05-17T00:00:48.289Z,12.47
2019-05-17T00:03:21.762Z,12.43
2019-05-17T00:05:53.261Z,12.45
2019-05-17T00:08:33.900Z,12.40
2019-05-17T00:10:59.004Z,12.35
2019-05-17T00:13:30.664Z,12.36
2019-05-17T00:16:02.193Z,12.39
2019-05-17T00:18:34.458Z,12.36
2019-05-17T00:21:07.691Z,12.30
2019-05-17T00:23:40.229Z,12.33
2019-05-17T00:26:12.576Z,12.27
2019-05-17T00:28:46.786Z,12.34
2019-05-17T00:31:17.668Z,12.37
2019-05-17T00:33:50.201Z,12.34
2019-05-17T00:36:21.876Z,12.36
2019-05-17T00:38:56.651Z,12.34
2019-05-17T00:41:27.089Z,12.39
2019-05-17T00:43:58.702Z,12.46
2019-05-17T00:46:30.163Z,12.54
2019-05-17T00:49:02.131Z,12.59
2019-05-17T00:51:36.700Z,12.50
2019-05-17T00:54:08.483Z,12.41
2019-05-17T00:56:40.346Z,12.36
2019-05-17T00:59:12.564Z,12.30
2019-05-17T01:01:46.772Z,12.26
2019-05-17T01:04:18.026Z,12.31
2019-05-17T01:06:50.448Z,12.32
2019-05-17T01:09:21.939Z,12.37
2019-05-17T01:11:53.821Z,12.44
2019-05-17T01:14:26.569Z,12.41
2019-05-17T01:16:58.848Z,12.45
2019-05-17T01:19:30.130Z,12.50
2019-05-17T01:22:02.543Z,12.47
2019-05-17T01:24:36.713Z,12.39
2019-05-17T01:27:09.020Z,12.41
2019-05-17T01:29:40.425Z,12.40
2019-05-17T01:32:11.820Z,12.31
2019-05-17T01:34:43.605Z,12.23
2019-05-17T01:37:16.986Z,12.19
2019-05-17T01:39:49.035Z,12.13
2019-05-17T01:42:21.387Z,12.10
2019-05-17T01:44:53.026Z,12.05
2019-05-17T01:47:27.105Z,12.11
2019-05-17T01:49:59.213Z,12.18
2019-05-17T01:52:31.705Z,12.19
2019-05-17T01:55:03.787Z,12.18
2019-05-17T01:57:37.106Z,12.17
2019-05-17T02:00:11.214Z,12.20
2019-05-17T02:02:47.103Z,12.25
2019-05-17T02:05:18.801Z,12.24
2019-05-17T02:07:51.325Z,12.22
2019-05-17T02:10:23.663Z,12.17
2019-05-17T02:12:57.035Z,12.14
2019-05-17T02:15:28.681Z,12.23
2019-05-17T02:18:00.085Z,12.27
2019-05-17T02:20:33.080Z,12.33
2019-05-17T02:23:07.264Z,12.29
2019-05-17T02:25:38.217Z,12.21
2019-05-17T02:28:12.079Z,12.18
2019-05-17T02:30:44.136Z,12.16
2019-05-17T02:33:16.670Z,12.22
2019-05-17T02:35:48.866Z,12.20
2019-05-17T02:38:22.412Z,12.16
2019-05-17T02:40:53.877Z,12.21
2019-05-17T02:43:26.042Z,12.24
2019-05-17T02:45:57.961Z,12.25
2019-05-17T02:48:29.651Z,12.24
2019-05-17T02:51:03.484Z,12.21
2019-05-17T02:53:34.827Z,12.21
2019-05-17T02:56:07.343Z,12.22
2019-05-17T02:58:39.264Z,12.20
2019-05-17T03:01:12.869Z,12.12
2019-05-17T03:03:44.743Z,12.18
2019-05-17T03:06:16.409Z,12.20
2019-05-17T03:08:48.409Z,12.21
2019-05-17T03:11:22.650Z,12.23
2019-05-17T03:13:54.010Z,12.20
2019-05-17T03:16:26.546Z,12.12
2019-05-17T03:18:57.664Z,12.08
2019-05-17T03:21:28.977Z,12.06
2019-05-17T03:24:03.172Z,12.07
2019-05-17T03:26:33.713Z,12.07
2019-05-17T03:29:06.268Z,12.11
2019-05-17T03:31:48.995Z,12.16
2019-05-17T03:34:16.944Z,12.14
2019-05-17T03:36:47.177Z,12.15
2019-05-17T03:39:18.427Z,12.15
2019-05-17T03:41:49.788Z,12.18
2019-05-17T03:44:22.615Z,12.22
2019-05-17T03:46:54.441Z,12.24
2019-05-17T03:49:26.686Z,12.27
2019-05-17T03:51:58.139Z,12.26
2019-05-17T03:54:32.258Z,12.21
2019-05-17T03:57:03.298Z,12.21
2019-05-17T03:59:34.610Z,12.24
2019-05-17T04:02:07.186Z,12.28
2019-05-17T04:04:38.583Z,12.30
2019-05-17T04:07:12.744Z,12.25
2019-05-17T04:09:43.827Z,12.21
2019-05-17T04:12:15.385Z,12.20
2019-05-17T04:14:47.347Z,12.22
2019-05-17T04:17:22.579Z,12.32
2019-05-17T04:19:53.583Z,12.40
2019-05-17T04:22:26.220Z,12.48
2019-05-17T04:24:58.742Z,12.51
2019-05-17T04:27:32.773Z,12.52
2019-05-17T04:30:04.828Z,12.58
2019-05-17T04:32:36.986Z,12.57
2019-05-17T04:35:12.568Z,12.56
2019-05-17T04:37:44.510Z,12.60
2019-05-17T04:40:15.729Z,12.66
2019-05-17T04:42:46.597Z,12.64
2019-05-17T04:45:18.249Z,12.61
2019-05-17T04:47:52.669Z,12.62
2019-05-17T04:50:23.218Z,12.64
2019-05-17T04:52:55.334Z,12.64
2019-05-17T04:55:27.108Z,12.74
2019-05-17T04:57:59.330Z,12.82
2019-05-17T05:00:34.009Z,12.87
2019-05-17T05:03:06.415Z,12.91
2019-05-17T05:05:42.547Z,12.98
2019-05-17T05:08:13.479Z,13.05
2019-05-17T05:10:44.956Z,13.07
2019-05-17T05:13:16.562Z,13.12
2019-05-17T05:15:47.544Z,13.13
2019-05-17T05:18:21.906Z,13.14
2019-05-17T05:20:52.653Z,13.09
2019-05-17T05:23:24.400Z,13.12
2019-05-17T05:25:56.378Z,13.21
2019-05-17T05:28:27.735Z,13.21
2019-05-17T05:31:01.849Z,13.31
2019-05-17T05:33:33.510Z,13.45
2019-05-17T05:36:06.453Z,13.39
2019-05-17T05:38:37.907Z,13.38
2019-05-17T05:41:12.230Z,13.55
2019-05-17T05:43:44.746Z,13.72
2019-05-17T05:46:16.389Z,13.91
2019-05-17T05:48:48.824Z,14.01
2019-05-17T05:51:21.647Z,14.06
2019-05-17T05:53:54.320Z,14.21
2019-05-17T05:56:26.492Z,14.29
2019-05-17T05:58:58.703Z,14.41
2019-05-17T06:01:32.503Z,14.38
2019-05-17T06:04:04.136Z,14.34
2019-05-17T06:06:36.856Z,14.37
2019-05-17T06:09:12.005Z,14.43
2019-05-17T06:11:44.048Z,14.39
2019-05-17T06:14:15.594Z,14.38
2019-05-17T06:16:48.009Z,14.39
2019-05-17T06:19:22.246Z,14.45
2019-05-17T06:21:53.745Z,14.42
2019-05-17T06:24:27.507Z,14.44
2019-05-17T06:27:03.231Z,14.57
2019-05-17T06:29:35.349Z,14.61
2019-05-17T06:32:07.723Z,14.56
2019-05-17T06:34:42.079Z,14.65
2019-05-17T06:37:16.565Z,14.73
2019-05-17T06:39:48.654Z,14.87
2019-05-17T06:42:21.672Z,14.97
2019-05-17T06:44:54.509Z,15.10
2019-05-17T06:47:25.724Z,15.13
2019-05-17T06:52:58.542Z,15.03
2019-05-17T06:55:31.491Z,15.06
2019-05-17T06:58:02.453Z,15.06
2019-05-17T07:00:33.597Z,15.11
2019-05-17T07:03:04.982Z,15.04
2019-05-17T07:05:40.352Z,15.01
2019-05-17T07:08:11.006Z,14.96
2019-05-17T07:10:46.670Z,14.91
2019-05-17T07:13:19.671Z,14.86
2019-05-17T07:15:51.071Z,14.86
2019-05-17T07:18:22.261Z,14.87
2019-05-17T07:20:53.255Z,14.85
2019-05-17T07:23:24.648Z,14.88
2019-05-17T07:25:55.398Z,14.81
2019-05-17T07:28:25.766Z,14.70
2019-05-17T07:30:59.630Z,14.67
2019-05-17T07:33:30.683Z,14.68
2019-05-17T07:36:01.585Z,14.69
2019-05-17T07:38:32.678Z,14.69
2019-05-17T07:41:03.588Z,14.72
2019-05-17T07:43:34.004Z,14.70
2019-05-17T07:46:05.384Z,14.72
2019-05-17T07:48:36.108Z,14.77
2019-05-17T07:51:10.123Z,14.78
2019-05-17T07:53:41.091Z,14.80
2019-05-17T07:56:12.367Z,14.83
2019-05-17T07:58:44.701Z,14.82
2019-05-17T08:01:16.284Z,14.82
2019-05-17T08:03:50.112Z,14.86
2019-05-17T08:06:20.076Z,14.97
2019-05-17T08:08:51.270Z,15.00
2019-05-17T08:11:23.144Z,15.09
2019-05-17T08:13:55.463Z,15.10
2019-05-17T08:16:26.990Z,15.16
2019-05-17T08:18:57.287Z,15.20
2019-05-17T08:21:30.490Z,15.21
2019-05-17T08:24:01.729Z,15.22
2019-05-17T08:26:32.279Z,15.21
2019-05-17T08:29:03.100Z,15.21
2019-05-17T08:31:33.645Z,15.18
2019-05-17T08:34:05.080Z,15.19
2019-05-17T08:36:35.930Z,15.17
2019-05-17T08:39:06.734Z,15.14
2019-05-17T08:41:37.333Z,15.17
2019-05-17T08:44:10.049Z,15.29
2019-05-17T08:46:40.986Z,15.43
2019-05-17T08:49:11.624Z,15.46
2019-05-17T08:51:44.547Z,15.34
2019-05-17T08:54:15.760Z,15.41
2019-05-17T08:56:50.290Z,15.39
2019-05-17T08:59:21.860Z,15.34
2019-05-17T09:01:53.517Z,15.30
2019-05-17T09:04:25.677Z,15.31
2019-05-17T09:07:00.046Z,15.27
2019-05-17T09:09:32.762Z,15.26
2019-05-17T09:12:04.477Z,15.23
2019-05-17T09:14:36.318Z,15.21
2019-05-17T09:17:10.318Z,15.21
2019-05-17T09:19:40.834Z,15.21
2019-05-17T09:22:11.462Z,15.27
2019-05-17T09:24:42.949Z,15.32
2019-05-17T09:27:19.585Z,15.42
2019-05-17T09:29:50.775Z,15.48
2019-05-17T09:32:21.927Z,15.51
2019-05-17T09:34:53.410Z,15.58
2019-05-17T09:37:26.059Z,15.59
2019-05-17T09:39:57.134Z,15.65
2019-05-17T09:42:30.024Z,15.74
2019-05-17T09:45:02.757Z,15.84
2019-05-17T09:47:33.441Z,15.94
2019-05-17T09:50:06.256Z,16.00
2019-05-17T09:52:40.581Z,16.12
2019-05-17T09:55:12.032Z,16.15
2019-05-17T09:57:44.759Z,16.34
2019-05-17T10:00:17.439Z,16.44
2019-05-17T10:02:47.342Z,16.56
2019-05-17T10:05:17.265Z,16.67
2019-05-17T10:07:47.243Z,16.70
2019-05-17T10:10:20.081Z,16.80
2019-05-17T10:12:49.966Z,16.86
2019-05-17T10:15:21.012Z,16.94
2019-05-17T10:17:51.642Z,16.94
2019-05-17T10:20:21.745Z,17.02
2019-05-17T10:22:51.727Z,17.02
2019-05-17T10:25:21.595Z,17.02
2019-05-17T10:27:51.500Z,17.04
2019-05-17T10:30:21.731Z,17.09
2019-05-17T10:32:52.065Z,17.07
2019-05-17T10:35:21.808Z,17.04
2019-05-17T10:37:52.725Z,17.02
2019-05-17T10:40:23.849Z,16.85
2019-05-17T10:42:53.758Z,16.70
2019-05-17T10:45:24.162Z,16.57
2019-05-17T10:47:53.992Z,16.59
2019-05-17T10:50:23.757Z,16.73
2019-05-17T10:52:53.611Z,16.90
2019-05-17T10:55:23.698Z,17.06
2019-05-17T10:57:55.754Z,17.21
2019-05-17T11:00:30.373Z,17.38
2019-05-17T11:03:02.261Z,17.33
2019-05-17T11:05:36.881Z,17.29
2019-05-17T11:08:10.843Z,17.21
2019-05-17T11:10:42.807Z,17.20
2019-05-17T11:13:14.399Z,17.20
2019-05-17T11:15:46.829Z,17.13
2019-05-17T11:18:18.658Z,17.10
2019-05-17T11:20:50.191Z,17.07
2019-05-17T11:23:22.569Z,17.07
2019-05-17T11:25:55.515Z,17.05
2019-05-17T11:28:28.231Z,16.96
2019-05-17T11:31:01.434Z,16.98
2019-05-17T11:33:33.957Z,17.02
2019-05-17T11:36:06.960Z,17.00
2019-05-17T11:38:38.477Z,16.97
2019-05-17T11:41:21.142Z,16.98
2019-05-17T11:43:46.116Z,17.07
2019-05-17T11:46:19.684Z,17.11
2019-05-17T11:48:51.080Z,17.10
2019-05-17T11:51:22.686Z,17.20
2019-05-17T11:53:54.673Z,17.23
2019-05-17T11:56:26.545Z,17.29
2019-05-17T11:58:58.385Z,17.33
2019-05-17T12:01:30.470Z,17.38
2019-05-17T12:04:03.863Z,17.32
2019-05-17T12:06:38.480Z,17.34
2019-05-17T12:09:09.765Z,17.36
2019-05-17T12:11:40.477Z,17.40
2019-05-17T12:14:12.435Z,17.37
2019-05-17T12:16:43.382Z,17.39
2019-05-17T12:19:13.803Z,17.40
2019-05-17T12:21:45.252Z,17.44
2019-05-17T12:24:16.178Z,17.40
2019-05-17T12:26:47.583Z,17.33
2019-05-17T12:29:19.805Z,17.25
2019-05-17T12:31:50.206Z,17.15
2019-05-17T12:34:21.994Z,17.15
2019-05-17T12:36:52.430Z,17.17
2019-05-17T12:39:23.237Z,17.00
2019-05-17T12:41:53.836Z,16.93
2019-05-17T12:44:24.823Z,16.80
2019-05-17T12:46:57.232Z,16.70
2019-05-17T12:49:28.027Z,16.67
2019-05-17T12:51:59.874Z,16.51
2019-05-17T12:54:31.754Z,16.39
2019-05-17T12:57:04.804Z,16.22
2019-05-17T12:59:36.476Z,16.10
2019-05-17T13:02:06.759Z,16.03
2019-05-17T13:04:37.276Z,15.98
2019-05-17T13:07:09.331Z,15.97
2019-05-17T13:09:40.238Z,15.90
2019-05-17T13:12:11.652Z,15.93
2019-05-17T13:14:42.733Z,15.89
2019-05-17T13:17:18.943Z,15.84
2019-05-17T13:19:59.319Z,15.92
2019-05-17T13:22:32.363Z,16.12
2019-05-17T13:25:03.701Z,16.16
2019-05-17T13:27:38.284Z,16.27
2019-05-17T13:30:07.705Z,16.26
2019-05-17T13:32:39.063Z,16.35
2019-05-17T13:35:09.798Z,16.37
2019-05-17T13:37:40.157Z,16.44
2019-05-17T13:40:11.888Z,16.51
2019-05-17T13:42:42.619Z,16.54
2019-05-17T13:45:16.644Z,16.60
2019-05-17T13:47:48.073Z,16.64
2019-05-17T13:50:19.276Z,16.62
2019-05-17T13:52:50.574Z,16.70
2019-05-17T13:55:21.839Z,16.81
2019-05-17T13:57:52.656Z,16.98
2019-05-17T14:00:24.381Z,17.15
2019-05-17T14:02:54.647Z,17.31
2019-05-17T14:05:25.300Z,17.31
2019-05-17T14:07:56.841Z,17.27
2019-05-17T14:10:31.523Z,17.34
2019-05-17T14:13:01.450Z,17.46
2019-05-17T14:15:32.937Z,17.47
2019-05-17T14:18:03.950Z,17.48
2019-05-17T14:20:34.677Z,17.54
2019-05-17T14:23:06.025Z,17.49
2019-05-17T14:25:36.919Z,17.68
2019-05-17T14:28:27.726Z,17.78
2019-05-17T14:30:58.428Z,17.72
2019-05-17T14:33:29.442Z,17.88
2019-05-17T14:36:00.382Z,18.07
2019-05-17T14:38:30.716Z,18.10
2019-05-17T14:41:07.672Z,18.26
2019-05-17T14:43:35.166Z,18.39
2019-05-17T14:46:07.196Z,18.41
2019-05-17T14:48:38.895Z,18.32
2019-05-17T14:51:09.977Z,18.41
2019-05-17T14:53:40.796Z,18.31
2019-05-17T14:56:11.643Z,18.10
2019-05-17T14:58:42.310Z,18.26
2019-05-17T15:01:13.634Z,18.42
2019-05-17T15:03:44.220Z,18.53
2019-05-17T15:06:15.113Z,18.45
2019-05-17T15:08:46.521Z,18.39
2019-05-17T15:11:17.578Z,18.52
2019-05-17T15:13:47.633Z,18.65
2019-05-17T15:16:17.451Z,18.70
2019-05-17T15:18:47.672Z,18.57
2019-05-17T15:21:17.590Z,18.66
2019-05-17T15:23:47.803Z,18.72
2019-05-17T15:26:20.699Z,18.71
2019-05-17T15:28:51.022Z,18.83
2019-05-17T15:31:21.142Z,18.93
2019-05-17T15:33:51.050Z,19.01
2019-05-17T15:36:21.058Z,19.00
2019-05-17T15:38:50.967Z,19.07
2019-05-17T15:41:21.238Z,19.04
2019-05-17T15:43:51.030Z,19.04
2019-05-17T15:46:21.532Z,19.09
2019-05-17T15:48:51.811Z,19.09
2019-05-17T15:51:21.884Z,19.21
2019-05-17T15:53:52.135Z,19.30
2019-05-17T15:56:22.917Z,19.40
2019-05-17T15:58:53.231Z,19.45
2019-05-17T16:01:23.778Z,19.40
2019-05-17T16:03:54.560Z,19.45
2019-05-17T16:06:24.655Z,19.28
2019-05-17T16:08:56.107Z,19.38
2019-05-17T16:11:26.897Z,19.38
2019-05-17T16:13:58.152Z,19.42
2019-05-17T16:16:29.220Z,19.34
2019-05-17T16:19:00.486Z,19.31
2019-05-17T16:21:32.866Z,19.33
2019-05-17T16:24:05.624Z,19.30
2019-05-17T16:26:36.377Z,19.33
2019-05-17T16:29:07.514Z,19.31
2019-05-17T16:31:38.149Z,19.37
2019-05-17T16:34:08.953Z,19.35
2019-05-17T16:36:39.957Z,19.25
2019-05-17T16:39:10.208Z,19.32
2019-05-17T16:41:40.996Z,19.35
2019-05-17T16:44:14.655Z,19.39
2019-05-17T16:46:45.389Z,19.37
2019-05-17T16:49:17.608Z,19.27
2019-05-17T16:51:50.862Z,19.24
2019-05-17T16:54:23.351Z,19.23
2019-05-17T16:56:54.097Z,19.12
2019-05-17T16:59:25.283Z,19.09
2019-05-17T17:01:57.373Z,18.98
2019-05-17T17:04:28.634Z,18.97
2019-05-17T17:07:01.570Z,18.99
2019-05-17T17:09:34.144Z,19.03
2019-05-17T17:12:06.060Z,18.92
2019-05-17T17:14:37.505Z,18.82
2019-05-17T17:17:12.331Z,18.74
2019-05-17T17:19:43.312Z,18.67
2019-05-17T17:22:15.568Z,18.58
2019-05-17T17:24:47.341Z,18.48
2019-05-17T17:27:18.338Z,18.38
2019-05-17T17:29:49.380Z,18.34
2019-05-17T17:32:21.877Z,18.31
2019-05-17T17:34:53.864Z,18.29
2019-05-17T17:37:24.936Z,18.25
2019-05-17T17:39:55.935Z,18.21
2019-05-17T17:42:26.560Z,18.20
2019-05-17T17:44:58.010Z,18.11
2019-05-17T17:47:28.579Z,18.06
2019-05-17T17:49:59.521Z,18.06
2019-05-17T17:52:30.383Z,18.06
2019-05-17T17:55:00.699Z,18.04
2019-05-17T17:57:32.287Z,18.02
2019-05-17T18:00:03.159Z,17.98
2019-05-17T18:02:36.221Z,17.85
2019-05-17T18:05:08.654Z,17.69
2019-05-17T18:07:40.153Z,17.51
2019-05-17T18:10:13.895Z,17.44
2019-05-17T18:12:45.575Z,17.42
2019-05-17T18:15:19.874Z,17.32
2019-05-17T18:17:53.088Z,17.21
2019-05-17T18:20:24.956Z,17.07
2019-05-17T18:22:56.493Z,16.93
2019-05-17T18:25:27.812Z,16.76
2019-05-17T18:27:59.091Z,16.54
2019-05-17T18:30:30.425Z,16.35
2019-05-17T18:33:01.897Z,16.18
2019-05-17T18:35:33.697Z,16.08
2019-05-17T18:38:06.696Z,16.03
2019-05-17T18:40:37.899Z,15.99
2019-05-17T18:43:08.979Z,15.89
2019-05-17T18:45:41.023Z,15.85
2019-05-17T18:48:12.538Z,15.81
2019-05-17T18:50:44.100Z,15.76
2019-05-17T18:53:16.990Z,15.72
2019-05-17T18:55:49.620Z,15.71
2019-05-17T18:58:20.621Z,15.58
2019-05-17T19:00:52.244Z,15.50
2019-05-17T19:03:23.457Z,15.40
2019-05-17T19:05:54.658Z,15.37
2019-05-17T19:08:25.779Z,15.32
2019-05-17T19:10:57.818Z,15.21
2019-05-17T19:13:28.930Z,15.12
2019-05-17T19:16:05.057Z,15.03
2019-05-17T19:18:38.316Z,14.96
2019-05-17T19:21:16.662Z,14.88
2019-05-17T19:23:58.789Z,14.80
2019-05-17T19:26:43.371Z,14.73
2019-05-17T19:29:22.294Z,14.68
2019-05-17T19:31:55.166Z,14.64
2019-05-17T19:34:26.702Z,14.55
2019-05-17T19:36:58.075Z,14.35
2019-05-17T19:39:29.136Z,14.33
2019-05-17T19:42:00.276Z,14.31
2019-05-17T19:44:31.326Z,14.29
2019-05-17T19:47:02.756Z,14.39
2019-05-17T19:49:35.391Z,14.40
2019-05-17T19:52:06.501Z,14.29
2019-05-17T19:54:40.898Z,14.21
2019-05-17T19:57:12.507Z,14.16
2019-05-17T19:59:43.469Z,14.11
2019-05-17T20:02:17.329Z,14.01
2019-05-17T20:04:48.526Z,13.94
2019-05-17T20:07:19.423Z,13.87
2019-05-17T20:09:50.869Z,13.79
2019-05-17T20:12:23.802Z,13.74
2019-05-17T20:14:55.033Z,13.71
2019-05-17T20:17:31.000Z,13.67
2019-05-17T20:20:04.772Z,13.65
2019-05-17T20:22:35.784Z,13.57
2019-05-17T20:25:08.924Z,13.56
2019-05-17T20:27:42.318Z,13.46
2019-05-17T20:30:15.252Z,13.38
2019-05-17T20:32:47.475Z,13.34
2019-05-17T20:35:20.319Z,13.33
2019-05-17T20:37:54.179Z,13.31
2019-05-17T20:40:27.171Z,13.28
2019-05-17T20:43:00.547Z,13.26
2019-05-17T20:45:33.699Z,13.24
2019-05-17T20:48:07.392Z,13.14
2019-05-17T20:50:40.106Z,13.04
2019-05-17T20:53:18.937Z,13.01
2019-05-17T20:55:46.441Z,12.99
2019-05-17T20:58:18.087Z,12.94
2019-05-17T21:00:50.209Z,12.88
2019-05-17T21:03:22.358Z,12.80
2019-05-17T21:05:54.619Z,12.75
2019-05-17T21:08:26.898Z,12.73
2019-05-17T21:11:00.017Z,12.71
2019-05-17T21:13:32.559Z,12.72
2019-05-17T21:16:04.350Z,12.72
2019-05-17T21:18:35.851Z,12.70
2019-05-17T21:21:08.418Z,12.66
2019-05-17T21:23:40.653Z,12.61
2019-05-17T21:26:12.597Z,12.58
2019-05-17T21:28:47.090Z,12.58
2019-05-17T21:31:17.613Z,12.53
2019-05-17T21:33:49.273Z,12.50
2019-05-17T21:36:21.542Z,12.47
2019-05-17T21:38:54.653Z,12.48
2019-05-17T21:41:26.573Z,12.46
2019-05-17T21:43:59.351Z,12.40
2019-05-17T21:46:31.699Z,12.31
2019-05-17T21:49:04.236Z,12.29
2019-05-17T21:51:36.264Z,12.22
2019-05-17T21:54:07.980Z,12.17
2019-05-17T21:56:40.203Z,12.16
2019-05-17T21:59:12.802Z,12.14
2019-05-17T22:01:44.944Z,12.09
2019-05-17T22:04:16.967Z,12.08
2019-05-17T22:06:48.451Z,12.01
2019-05-17T22:09:19.849Z,11.98
2019-05-17T22:11:52.637Z,11.82
2019-05-17T22:14:24.280Z,11.82
2019-05-17T22:16:55.839Z,11.79
2019-05-17T22:19:27.579Z,11.79
2019-05-17T22:21:59.357Z,11.74
2019-05-17T22:24:30.943Z,11.73
2019-05-17T22:27:02.258Z,11.69
2019-05-17T22:29:33.788Z,11.70
2019-05-17T22:32:05.332Z,11.70
2019-05-17T22:34:37.440Z,11.67
2019-05-17T22:37:09.062Z,11.58
2019-05-17T22:39:40.156Z,11.59
2019-05-17T22:42:11.667Z,11.54
2019-05-17T22:44:43.583Z,11.53
2019-05-17T22:47:14.942Z,11.43
2019-05-17T22:49:46.295Z,11.37
2019-05-17T22:52:18.053Z,11.31
2019-05-17T22:54:49.933Z,11.31
2019-05-17T22:57:21.521Z,11.29
2019-05-17T22:59:52.914Z,11.27
2019-05-17T23:02:24.746Z,11.22
2019-05-17T23:04:56.802Z,11.20
2019-05-17T23:07:28.373Z,11.10
2019-05-17T23:10:00.211Z,11.02
2019-05-17T23:12:31.952Z,10.95
2019-05-17T23:15:03.740Z,10.95
2019-05-17T23:17:35.003Z,11.03
2019-05-17T23:20:07.183Z,11.07
2019-05-17T23:22:38.982Z,11.07
2019-05-17T23:25:10.721Z,11.05
2019-05-17T23:27:42.129Z,11.06
2019-05-17T23:30:14.397Z,11.06
2019-05-17T23:32:45.683Z,11.03
2019-05-17T23:35:17.205Z,11.02
2019-05-17T23:37:48.405Z,10.97
2019-05-17T23:40:20.158Z,10.96
2019-05-17T23:42:52.058Z,10.96
2019-05-17T23:45:23.742Z,10.93
2019-05-17T23:47:55.082Z,10.86
2019-05-17T23:50:26.926Z,10.90
2019-05-17T23:53:01.001Z,10.92
2019-05-17T23:55:32.369Z,10.91
2019-05-17T23:58:04.225Z,10.93
